Time;durP1;ratioP1;P1;durP2;ratioP2;P2;SDS_P1;SDS_P2;PMS_P1;PMS_P2;Temp;Humidity;BMP_temperature;BMP_pressure;BME280_temperature;BME280_humidity;BME280_pressure;Samples;Min_cycle;Max_cycle;Signal;HPM_P1;HPM_P2
2022/06/25 00:02:19;;;;;;;63.80;59.17;;;;;;;16.26;100.00;100492.64;2003897;71;33395;-71
2022/06/25 00:08:04;;;;;;;64.57;59.70;;;;;;;15.98;100.00;100497.53;2004993;71;32821;-72
2022/06/25 00:13:49;;;;;;;67.37;62.20;;;;;;;15.92;100.00;100499.09;2013435;71;32839;-70
2022/06/25 00:19:34;;;;;;;64.93;60.03;;;;;;;15.78;100.00;100506.85;2014879;71;32808;-72
2022/06/25 00:25:19;;;;;;;61.47;56.47;;;;;;;15.80;100.00;100503.12;2016578;71;33378;-72
2022/06/25 00:31:04;;;;;;;62.80;57.77;;;;;;;15.89;100.00;100508.73;2004470;71;33314;-72
2022/06/25 00:36:48;;;;;;;61.87;56.57;;;;;;;15.68;100.00;100515.56;2011719;71;32804;-70
2022/06/25 00:42:32;;;;;;;61.07;56.47;;;;;;;15.60;100.00;100517.78;1994596;71;32806;-72
2022/06/25 00:48:19;;;;;;;62.87;58.13;;;;;;;15.60;100.00;100526.17;2014739;71;32834;-72
2022/06/25 00:54:06;;;;;;;61.90;56.83;;;;;;;15.54;100.00;100527.47;1996855;71;32811;-71
2022/06/25 00:59:53;;;;;;;62.10;57.20;;;;;;;15.33;100.00;100541.22;1991263;71;32748;-71
2022/06/25 01:05:37;;;;;;;60.43;55.63;;;;;;;15.42;100.00;100536.47;1998681;71;32798;-72
2022/06/25 01:11:22;;;;;;;60.80;55.83;;;;;;;15.43;100.00;100540.93;2018282;71;32859;-71
2022/06/25 01:17:11;;;;;;;61.57;56.67;;;;;;;15.22;100.00;100560.03;1996928;71;32798;-71
2022/06/25 01:22:56;;;;;;;61.57;56.67;;;;;;;15.20;100.00;100553.92;2012975;71;33319;-71
2022/06/25 01:28:48;;;;;;;63.23;58.07;;;;;;;15.19;100.00;100567.08;2013138;71;33412;-71
2022/06/25 01:34:32;;;;;;;61.80;56.80;;;;;;;14.93;100.00;100572.55;1999983;71;32800;-70
2022/06/25 01:40:17;;;;;;;57.83;53.33;;;;;;;14.99;100.00;100577.44;1991397;71;33336;-70
2022/06/25 01:46:01;;;;;;;60.47;55.27;;;;;;;15.03;100.00;100581.25;2003686;71;32928;-71
2022/06/25 01:51:45;;;;;;;59.13;54.53;;;;;;;14.81;100.00;100584.08;1996745;71;32751;-71
2022/06/25 01:57:30;;;;;;;58.73;54.03;;;;;;;14.82;100.00;100588.53;2006119;71;32803;-71
2022/06/25 02:03:14;;;;;;;60.63;56.03;;;;;;;14.85;100.00;100587.88;2000604;71;32872;-71
2022/06/25 02:08:59;;;;;;;58.80;54.30;;;;;;;14.65;100.00;100597.64;2000321;71;32750;-71
2022/06/25 02:14:43;;;;;;;57.60;53.00;;;;;;;14.57;100.00;100597.01;2006151;71;33284;-71
2022/06/25 02:20:28;;;;;;;59.97;55.17;;;;;;;14.73;100.00;100601.06;1994719;71;32821;-71
2022/06/25 02:26:12;;;;;;;60.93;56.00;;;;;;;14.78;100.00;100598.70;2009096;71;32965;-71
2022/06/25 02:31:57;;;;;;;61.73;56.93;;;;;;;14.69;100.00;100595.86;2015016;71;32861;-71
2022/06/25 02:37:41;;;;;;;63.07;58.43;;;;;;;14.57;100.00;100598.41;2005984;71;33256;-71
2022/06/25 02:43:27;;;;;;;63.73;58.93;;;;;;;14.59;100.00;100608.12;2005940;71;32787;-71
2022/06/25 02:49:11;;;;;;;59.93;55.37;;;;;;;14.60;100.00;100603.36;2016835;70;33435;-71
2022/06/25 02:54:55;;;;;;;61.03;56.03;;;;;;;14.73;100.00;100608.62;2006056;71;32904;-71
2022/06/25 03:00:40;;;;;;;60.80;56.07;;;;;;;14.50;100.00;100612.81;2003764;71;32937;-71
2022/06/25 03:06:24;;;;;;;61.23;56.53;;;;;;;14.48;100.00;100611.49;2000710;71;32763;-71
2022/06/25 03:12:12;;;;;;;60.60;55.97;;;;;;;14.30;100.00;100627.25;2005606;71;33268;-71
2022/06/25 03:17:56;;;;;;;59.63;54.73;;;;;;;14.43;100.00;100632.00;2006272;71;33296;-71
2022/06/25 03:23:40;;;;;;;61.43;56.40;;;;;;;14.51;100.00;100634.03;1991431;71;33323;-71
2022/06/25 03:29:25;;;;;;;57.43;52.97;;;;;;;14.29;100.00;100654.93;2009898;71;32786;-69
2022/06/25 03:35:10;;;;;;;58.10;53.60;;;;;;;14.12;100.00;100652.80;2007496;71;33461;-71
2022/06/25 03:41:32;;;;;;;58.27;53.70;;;;;;;14.09;100.00;100656.80;1998507;71;33344;-71
2022/06/25 03:46:41;;;;;;;59.57;54.80;;;;;;;14.06;100.00;100659.66;1994870;71;32944;-74
2022/06/25 03:52:25;;;;;;;60.43;55.77;;;;;;;14.21;100.00;100661.83;2011108;71;33289;-74
2022/06/25 03:58:10;;;;;;;57.67;53.17;;;;;;;14.24;100.00;100663.45;2018547;71;32945;-72
2022/06/25 04:03:54;;;;;;;60.63;55.90;;;;;;;14.21;100.00;100668.81;2006119;71;33365;-72
2022/06/25 04:09:38;;;;;;;60.90;56.30;;;;;;;14.12;100.00;100672.92;2016596;71;33323;-72
2022/06/25 04:15:24;;;;;;;61.00;56.10;;;;;;;14.12;100.00;100675.71;2013249;71;32802;-71
2022/06/25 04:21:08;;;;;;;56.60;51.90;;;;;;;13.84;100.00;100680.52;2004170;71;32812;-71
2022/06/25 04:26:52;;;;;;;60.37;55.03;;;;;;;13.93;100.00;100687.03;1995277;71;32748;-71
2022/06/25 04:32:37;;;;;;;61.73;57.03;;;;;;;13.90;100.00;100688.23;2013201;71;32883;-71
2022/06/25 04:38:23;;;;;;;60.07;54.97;;;;;;;13.96;100.00;100699.53;1995423;71;32748;-72
2022/06/25 04:44:07;;;;;;;61.00;56.20;;;;;;;13.99;100.00;100691.35;2003859;71;32893;-72
2022/06/25 04:49:52;;;;;;;58.27;53.37;;;;;;;13.98;100.00;100698.66;1994957;71;32820;-72
2022/06/25 04:55:36;;;;;;;57.83;52.80;;;;;;;14.04;100.00;100711.36;2001027;71;33243;-74
2022/06/25 05:01:21;;;;;;;60.77;56.00;;;;;;;14.09;100.00;100713.48;2010035;71;32744;-72
2022/06/25 05:07:06;;;;;;;64.27;59.20;;;;;;;14.20;100.00;100718.30;2013310;71;33357;-74
2022/06/25 05:18:52;;;;;;;61.37;56.53;;;;;;;14.24;100.00;100735.26;1999397;71;33357;-72
2022/06/25 05:24:36;;;;;;;63.73;58.53;;;;;;;14.42;100.00;100737.94;2007968;71;33362;-73
2022/06/25 05:30:23;;;;;;;65.30;60.23;;;;;;;14.48;100.00;100739.48;2016979;71;33340;-71
2022/06/25 05:36:08;;;;;;;65.43;60.27;;;;;;;14.57;100.00;100745.98;2012020;71;32819;-73
2022/06/25 05:41:55;;;;;;;64.50;59.13;;;;;;;14.55;100.00;100751.62;2013469;71;32873;-72
2022/06/25 05:47:40;;;;;;;62.80;57.70;;;;;;;14.81;100.00;100756.88;1998678;71;32886;-72
2022/06/25 05:53:25;;;;;;;68.20;62.53;;;;;;;14.77;100.00;100757.83;2007630;71;32898;-74
2022/06/25 05:59:10;;;;;;;69.33;63.53;;;;;;;14.81;100.00;100761.64;2005784;71;32816;-74
2022/06/25 06:04:54;;;;;;;69.83;64.60;;;;;;;14.99;100.00;100767.64;2006152;71;33369;-73
2022/06/25 06:10:38;;;;;;;67.60;61.93;;;;;;;15.00;100.00;100779.92;2015258;71;33302;-74
2022/06/25 06:16:23;;;;;;;70.33;64.73;;;;;;;15.16;100.00;100779.54;2013098;71;33056;-74
2022/06/25 06:22:08;;;;;;;72.77;66.63;;;;;;;15.20;100.00;100778.59;2011377;71;33368;-75
2022/06/25 06:27:55;;;;;;;71.97;66.00;;;;;;;15.23;100.00;100771.55;1991854;71;32771;-73
2022/06/25 06:33:41;;;;;;;70.73;65.30;;;;;;;15.41;100.00;100785.89;2005729;71;33399;-72
2022/06/25 06:39:25;;;;;;;74.67;69.10;;;;;;;15.33;100.00;100800.09;2003915;71;32809;-73
2022/06/25 06:45:11;;;;;;;70.27;64.77;;;;;;;15.57;100.00;100794.77;2009333;71;32877;-73
2022/06/25 06:50:59;;;;;;;69.33;63.90;;;;;;;15.75;100.00;100790.34;2009272;71;33472;-72
2022/06/25 06:56:44;;;;;;;71.17;65.60;;;;;;;15.83;100.00;100790.16;2014782;71;33382;-71
2022/06/25 07:02:31;;;;;;;70.40;64.93;;;;;;;15.82;100.00;100792.70;1991455;71;32922;-71
2022/06/25 07:08:16;;;;;;;68.20;62.83;;;;;;;15.96;100.00;100786.40;2018128;71;32868;-71
2022/06/25 07:14:05;;;;;;;67.40;62.30;;;;;;;16.06;100.00;100781.09;2009775;71;32758;-71
2022/06/25 07:19:52;;;;;;;67.63;62.37;;;;;;;16.19;100.00;100792.77;2003761;71;33366;-71
2022/06/25 07:25:36;;;;;;;69.47;64.37;;;;;;;16.46;100.00;100781.89;1991464;71;32868;-71
2022/06/25 07:31:21;;;;;;;65.90;61.13;;;;;;;16.39;100.00;100781.78;2000897;71;32799;-70
2022/06/25 07:37:07;;;;;;;58.53;54.13;;;;;;;16.99;100.00;100767.03;2007549;71;33298;-72
2022/06/25 07:42:51;;;;;;;56.90;52.97;;;;;;;17.00;100.00;100776.28;2006149;71;30833;-72
2022/06/25 07:48:35;;;;;;;56.70;52.77;;;;;;;17.10;100.00;100771.75;2018487;71;33532;-75
2022/06/25 07:54:19;;;;;;;46.03;43.10;;;;;;;17.86;100.00;100780.39;2009749;71;33327;-77
2022/06/25 08:00:05;;;;;;;38.93;36.37;;;;;;;17.83;100.00;100774.05;2008146;70;30839;-77
2022/06/25 08:05:49;;;;;;;39.47;36.87;;;;;;;17.71;100.00;100774.75;1995615;71;30991;-75
2022/06/25 08:11:37;;;;;;;35.97;33.67;;;;;;;17.19;100.00;100779.02;2016708;70;30849;-76
2022/06/25 08:17:21;;;;;;;38.00;35.33;;;;;;;17.07;100.00;100783.65;2015038;71;32951;-75
2022/06/25 08:23:06;;;;;;;41.20;38.60;;;;;;;17.85;100.00;100784.35;2004312;71;33327;-74
2022/06/25 08:28:50;;;;;;;40.47;37.60;;;;;;;17.94;100.00;100784.57;2003873;71;30939;-75
2022/06/25 08:34:35;;;;;;;35.23;32.67;;;;;;;18.31;100.00;100775.08;1999084;71;30979;-75
2022/06/25 08:40:21;;;;;;;31.90;29.50;;;;;;;18.55;100.00;100790.19;2018304;71;30896;-76
2022/06/25 08:46:05;;;;;;;25.80;24.10;;;;;;;18.88;100.00;100785.23;2013366;71;31103;-75
2022/06/25 08:51:52;;;;;;;18.10;16.80;;;;;;;18.60;100.00;100783.54;2014828;70;30897;-75
2022/06/25 08:57:36;;;;;;;16.33;15.13;;;;;;;18.16;100.00;100787.71;2009081;71;32930;-74
2022/06/25 09:03:23;;;;;;;16.60;15.40;;;;;;;18.32;100.00;100797.80;2013012;71;31018;-75
2022/06/25 09:09:13;;;;;;;14.47;13.40;;;;;;;18.98;100.00;100790.47;1959514;72;33359;-75
2022/06/25 09:15:21;;;;;;;14.90;13.80;;;;;;;19.62;100.00;100781.62;2006331;71;33418;-75
2022/06/25 09:21:07;;;;;;;13.97;12.77;;;;;;;19.53;100.00;100761.41;2011017;71;33457;-75
2022/06/25 09:26:54;;;;;;;14.00;12.80;;;;;;;19.52;100.00;100772.44;1991611;71;30829;-74
2022/06/25 09:32:52;;;;;;;12.57;11.40;;;;;;;19.94;100.00;100765.24;1998879;71;32883;-74
2022/06/25 09:38:51;;;;;;;12.63;11.67;;;;;;;20.14;100.00;100771.39;2014850;71;30954;-75
2022/06/25 09:44:36;;;;;;;12.43;11.43;;;;;;;20.33;100.00;100764.59;2014906;71;30922;-75
2022/06/25 09:50:22;;;;;;;12.00;10.90;;;;;;;19.87;100.00;100771.47;2006330;71;33296;-76
2022/06/25 09:56:11;;;;;;;12.40;11.47;;;;;;;19.64;100.00;100773.05;2002363;71;30946;-77
2022/06/25 10:01:56;;;;;;;12.40;11.40;;;;;;;19.42;100.00;100768.63;2011740;71;30837;-76
2022/06/25 10:08:04;;;;;;;12.33;11.33;;;;;;;19.39;100.00;100772.70;2009592;71;33382;-75
2022/06/25 10:13:53;;;;;;;12.17;11.17;;;;;;;19.07;100.00;100765.89;2014930;71;30935;-75
2022/06/25 10:19:37;;;;;;;12.20;11.20;;;;;;;19.51;100.00;100779.84;2000799;71;33266;-76
2022/06/25 10:25:24;;;;;;;11.50;10.63;;;;;;;19.12;100.00;100782.58;2014882;71;30875;-77
2022/06/25 10:31:19;;;;;;;12.00;10.80;;;;;;;19.02;100.00;100776.77;2016740;71;32918;-73
2022/06/25 10:37:10;;;;;;;12.00;11.07;;;;;;;19.51;100.00;100767.96;1994854;71;30994;-79
2022/06/25 10:43:00;;;;;;;12.37;11.10;;;;;;;19.87;100.00;100763.02;1994891;71;30950;-75
2022/06/25 10:49:13;;;;;;;10.80;10.03;;;;;;;19.84;100.00;100766.54;2006096;71;30849;-74
2022/06/25 10:55:02;;;;;;;11.43;10.50;;;;;;;19.98;100.00;100768.42;2004525;71;33378;-70
2022/06/25 11:01:00;;;;;;;11.97;10.70;;;;;;;20.56;100.00;100764.95;2014786;71;30991;-69
2022/06/25 11:07:10;;;;;;;11.90;10.77;;;;;;;20.38;100.00;100781.88;2014752;71;31025;-69
2022/06/25 11:12:56;;;;;;;12.40;11.30;;;;;;;20.24;100.00;100792.65;2006119;71;30926;-70
2022/06/25 11:18:46;;;;;;;11.70;10.70;;;;;;;20.51;100.00;100771.41;2011646;71;30819;-67
2022/06/25 11:30:53;;;;;;;11.77;10.70;;;;;;;20.33;100.00;100778.70;2011824;71;31417;-70
2022/06/25 11:36:39;;;;;;;11.00;10.17;;;;;;;20.36;100.00;100782.84;2009883;71;30853;-71
2022/06/25 11:42:24;;;;;;;15.70;14.57;;;;;;;20.47;100.00;100778.35;2013173;71;30880;-70
2022/06/25 11:48:10;;;;;;;11.30;10.50;;;;;;;20.44;100.00;100791.77;2007944;71;30920;-69
2022/06/25 11:53:54;;;;;;;10.93;10.23;;;;;;;20.36;100.00;100792.71;1995315;71;33318;-70
2022/06/25 11:59:40;;;;;;;11.37;10.57;;;;;;;20.39;100.00;100786.35;2000752;71;31295;-71
2022/06/25 12:05:25;;;;;;;11.27;10.37;;;;;;;20.60;100.00;100784.23;2004445;71;33394;-70
2022/06/25 12:11:08;;;;;;;12.70;10.93;;;;;;;21.07;100.00;100793.55;2011201;71;30988;-70
2022/06/25 12:16:53;;;;;;;11.70;10.90;;;;;;;21.02;100.00;100793.20;2013147;71;33496;-67
2022/06/25 12:22:41;;;;;;;11.93;11.03;;;;;;;20.88;100.00;100775.81;1991525;71;31026;-70
2022/06/25 12:32:06;;;;;;;11.83;10.63;;;;;;;21.08;100.00;100777.66;2000978;71;30819;-70
2022/06/25 12:38:05;;;;;;;11.10;10.30;;;;;;;21.10;100.00;100769.64;1997054;71;30924;-71
2022/06/25 12:43:55;;;;;;;11.50;10.50;;;;;;;20.89;100.00;100767.58;2009344;71;33495;-70
2022/06/25 12:49:48;;;;;;;12.03;11.10;;;;;;;20.81;100.00;100755.25;2000766;71;31416;-70
2022/06/25 12:55:34;;;;;;;10.63;9.90;;;;;;;20.84;100.00;100753.12;2016810;71;30939;-70
2022/06/25 13:01:23;;;;;;;11.70;10.70;;;;;;;20.72;100.00;100760.80;2018649;71;30885;-70
2022/06/25 13:07:09;;;;;;;11.60;10.77;;;;;;;21.02;100.00;100755.66;2018511;71;30946;-69
2022/06/25 13:12:53;;;;;;;12.90;11.40;;;;;;;20.88;100.00;100757.45;2009374;71;30982;-71
2022/06/25 13:18:38;;;;;;;11.20;10.37;;;;;;;20.80;100.00;100752.19;2003814;71;31031;-71
2022/06/25 13:24:23;;;;;;;11.37;10.57;;;;;;;21.02;100.00;100755.08;2009949;71;31366;-70
2022/06/25 13:30:10;;;;;;;11.20;10.40;;;;;;;20.95;100.00;100749.81;1994833;71;30973;-69
2022/06/25 13:35:55;;;;;;;11.63;10.80;;;;;;;21.00;100.00;100758.86;2000281;71;30829;-70
2022/06/25 13:41:43;;;;;;;11.87;10.77;;;;;;;21.10;100.00;100758.92;2018465;71;31034;-70
2022/06/25 13:47:27;;;;;;;12.07;10.90;;;;;;;21.28;100.00;100748.42;2018549;71;31337;-69
2022/06/25 13:53:13;;;;;;;11.67;10.73;;;;;;;21.36;100.00;100757.91;2014853;71;31466;-70
2022/06/25 13:58:57;;;;;;;12.33;11.18;;;;;;;21.02;100.00;100763.55;2014926;71;31510;-69
2022/06/25 14:04:42;;;;;;;11.73;10.75;;;;;;;21.23;100.00;100757.73;2008063;71;30815;-70
2022/06/25 14:10:26;;;;;;;10.93;10.13;;;;;;;21.24;100.00;100763.03;2011402;71;31493;-70
2022/06/25 14:16:12;;;;;;;12.00;11.10;;;;;;;20.83;100.00;100770.44;2009901;71;30852;-70
2022/06/25 14:21:59;;;;;;;11.30;10.40;;;;;;;21.13;100.00;100761.91;2002177;71;33393;-70
2022/06/25 14:27:43;;;;;;;11.20;10.40;;;;;;;21.56;100.00;100754.66;2003592;71;31011;-70
2022/06/25 14:33:28;;;;;;;10.60;9.77;;;;;;;21.29;100.00;100754.31;2018316;71;30933;-68
2022/06/25 14:51:40;;;;;;;11.57;10.63;;;;;;;21.16;100.00;100760.36;2014739;71;30943;-68
2022/06/25 14:57:24;;;;;;;11.47;10.57;;;;;;;20.87;100.00;100765.14;2000790;71;30833;-70
2022/06/25 15:03:09;;;;;;;11.47;10.40;;;;;;;21.07;100.00;100756.23;2011667;71;30893;-70
2022/06/25 15:08:53;;;;;;;11.37;10.40;;;;;;;21.13;100.00;100752.03;1977662;72;31380;-69
2022/06/25 15:14:36;;;;;;;11.03;10.23;;;;;;;21.14;100.00;100745.76;2014586;71;30923;-71
2022/06/25 15:20:20;;;;;;;11.33;10.53;;;;;;;21.48;100.00;100725.35;1991447;71;30925;-69
2022/06/25 15:26:04;;;;;;;13.62;10.23;;;;;;;21.30;100.00;100729.13;2014928;71;31410;-71
2022/06/25 15:31:48;;;;;;;11.10;10.30;;;;;;;21.13;100.00;100742.73;2011252;71;31437;-71
2022/06/25 15:37:33;;;;;;;11.00;10.10;;;;;;;21.00;100.00;100749.56;2016708;71;31016;-71
2022/06/25 15:43:18;;;;;;;11.37;10.67;;;;;;;20.64;100.00;100753.28;1995194;71;30872;-72
2022/06/25 15:49:03;;;;;;;12.50;11.50;;;;;;;20.70;100.00;100750.47;1991629;71;31336;-70
2022/06/25 15:54:48;;;;;;;11.63;10.57;;;;;;;20.87;100.00;100749.60;1991499;71;30942;-71
2022/06/25 16:00:34;;;;;;;10.70;9.90;;;;;;;20.98;100.00;100731.55;2016695;71;31471;-72
2022/06/25 16:06:18;;;;;;;11.13;10.23;;;;;;;20.96;100.00;100731.70;2009724;70;31376;-70
2022/06/25 16:12:03;;;;;;;11.90;10.93;;;;;;;20.68;100.00;100738.70;2011905;71;30817;-70
2022/06/25 16:17:47;;;;;;;11.83;10.90;;;;;;;20.75;100.00;100736.11;2000932;71;31374;-67
2022/06/25 16:23:32;;;;;;;11.53;10.53;;;;;;;20.73;100.00;100737.05;2013206;71;31025;-71
2022/06/25 16:29:17;;;;;;;10.90;10.10;;;;;;;21.07;100.00;100735.64;2014911;71;30929;-71
2022/06/25 16:35:01;;;;;;;11.70;10.70;;;;;;;20.82;100.00;100732.91;2013255;71;31452;-69
2022/06/25 16:40:45;;;;;;;11.77;10.70;;;;;;;20.62;100.00;100723.20;2004258;71;31475;-70
2022/06/25 16:46:32;;;;;;;11.40;10.60;;;;;;;20.21;100.00;100709.57;2014699;71;30924;-78
2022/06/25 16:52:17;;;;;;;10.93;10.00;;;;;;;20.22;100.00;100714.05;2013170;71;30874;-73
2022/06/25 16:58:03;;;;;;;11.03;10.13;;;;;;;19.83;100.00;100718.37;2011262;71;30984;-75
2022/06/25 17:03:48;;;;;;;11.30;10.10;;;;;;;20.05;100.00;100722.73;1983837;71;105252;-75
2022/06/25 17:09:33;;;;;;;11.03;10.23;;;;;;;20.00;100.00;100713.09;2018832;71;31387;-77
2022/06/25 17:15:17;;;;;;;11.00;9.90;;;;;;;19.90;100.00;100723.42;2008246;71;31407;-77
2022/06/25 17:21:02;;;;;;;26.47;24.53;;;;;;;19.70;100.00;100744.89;2002755;71;30948;-76
2022/06/25 17:26:47;;;;;;;28.37;26.73;;;;;;;18.78;100.00;100758.92;2018684;71;30897;-79
2022/06/25 17:32:32;;;;;;;24.10;22.60;;;;;;;18.71;100.00;100755.81;2007941;71;30899;-79
2022/06/25 17:38:17;;;;;;;18.20;17.10;;;;;;;18.51;100.00;100752.62;2006564;71;32951;-77
2022/06/25 17:44:02;;;;;;;19.67;18.57;;;;;;;18.68;100.00;100743.84;2015276;71;31493;-78
2022/06/25 17:49:47;;;;;;;17.27;15.97;;;;;;;18.70;100.00;100757.80;2011686;71;31505;-78
2022/06/25 17:55:32;;;;;;;16.63;15.63;;;;;;;18.60;100.00;100759.05;2009803;71;31017;-77
2022/06/25 18:01:16;;;;;;;14.90;13.97;;;;;;;18.68;100.00;100750.88;2009670;71;31448;-78
2022/06/25 18:07:01;;;;;;;14.03;13.20;;;;;;;18.81;100.00;100763.28;1995095;71;33062;-78
2022/06/25 18:12:45;;;;;;;14.80;13.90;;;;;;;18.76;100.00;100764.89;2015082;70;31025;-77
2022/06/25 18:18:30;;;;;;;13.67;12.77;;;;;;;18.55;100.00;100769.67;2009698;71;30913;-78
2022/06/25 18:24:15;;;;;;;12.80;12.00;;;;;;;18.56;100.00;100770.74;2015266;71;33357;-77
2022/06/25 18:29:59;;;;;;;13.27;12.53;;;;;;;18.76;100.00;100759.26;2000504;71;30944;-78
2022/06/25 18:35:44;;;;;;;13.10;12.33;;;;;;;18.34;100.00;100764.55;2013577;71;31032;-77
2022/06/25 18:41:34;;;;;;;11.80;11.10;;;;;;;18.62;100.00;100762.91;2008017;71;30869;-76
2022/06/25 18:47:22;;;;;;;11.67;10.80;;;;;;;18.65;100.00;100758.83;2006419;71;30942;-80
2022/06/25 18:53:06;;;;;;;11.37;10.80;;;;;;;18.77;100.00;100756.69;2014757;70;30932;-77
2022/06/25 18:58:51;;;;;;;13.17;12.37;;;;;;;18.49;100.00;100766.19;1991559;71;30870;-73
2022/06/25 19:04:35;;;;;;;13.40;12.70;;;;;;;18.45;100.00;100769.44;2009437;71;31609;-76
2022/06/25 19:10:23;;;;;;;16.67;15.67;;;;;;;18.11;100.00;100771.85;1975522;72;31012;-87
2022/06/25 19:16:11;;;;;;;18.97;18.00;;;;;;;18.18;100.00;100782.59;1999765;71;30925;-82
2022/06/25 19:21:55;;;;;;;23.83;22.27;;;;;;;18.02;100.00;100784.29;2015118;71;30952;-72
2022/06/25 19:27:40;;;;;;;25.53;24.13;;;;;;;17.98;100.00;100792.58;2016487;71;30944;-73
2022/06/25 19:33:26;;;;;;;27.37;25.87;;;;;;;17.83;100.00;100795.95;2002577;71;30949;-75
2022/06/25 19:39:11;;;;;;;34.73;32.93;;;;;;;17.86;100.00;100798.66;1991787;71;30998;-74
2022/06/25 19:44:55;;;;;;;38.03;35.73;;;;;;;17.93;100.00;100799.78;2016597;71;30926;-72
2022/06/25 19:50:40;;;;;;;39.40;37.30;;;;;;;17.88;100.00;100809.82;2018386;71;30902;-75
2022/06/25 19:56:25;;;;;;;43.27;40.67;;;;;;;17.88;100.00;100811.23;2015219;71;31024;-77
2022/06/25 20:02:09;;;;;;;43.97;41.40;;;;;;;17.79;100.00;100816.04;2018441;71;31033;-77
2022/06/25 20:07:54;;;;;;;44.80;42.30;;;;;;;17.79;100.00;100825.05;2011380;70;30994;-80
2022/06/25 20:13:38;;;;;;;48.40;45.73;;;;;;;17.73;100.00;100831.41;2013323;71;33042;-82
2022/06/25 20:19:23;;;;;;;51.33;48.43;;;;;;;17.50;100.00;100833.55;2016914;71;30966;-76
2022/06/25 20:25:10;;;;;;;53.03;50.03;;;;;;;17.35;100.00;100839.69;2004485;71;32806;-77
2022/06/25 20:30:56;;;;;;;55.33;52.10;;;;;;;17.35;100.00;100869.75;1995475;71;33253;-79
2022/06/25 20:36:40;;;;;;;57.67;54.20;;;;;;;17.39;100.00;100870.73;2018731;71;31451;-81
2022/06/25 20:42:25;;;;;;;60.47;56.83;;;;;;;17.32;100.00;100888.67;2016928;71;30880;-88
2022/06/25 20:48:10;;;;;;;60.10;56.30;;;;;;;17.33;100.00;100886.91;2015340;71;30850;-78
2022/06/25 20:53:55;;;;;;;62.07;58.07;;;;;;;17.28;100.00;100894.92;2000142;71;30974;-73
2022/06/25 20:59:40;;;;;;;61.17;57.47;;;;;;;17.09;100.00;100888.80;2006038;71;32983;-70
2022/06/25 21:11:27;;;;;;;62.03;58.23;;;;;;;17.02;100.00;100889.88;2013270;71;30914;-72
2022/06/25 21:17:11;;;;;;;63.23;59.03;;;;;;;17.05;100.00;100892.59;2015040;71;31336;-72
2022/06/25 21:22:55;;;;;;;62.33;58.53;;;;;;;16.99;100.00;100894.72;2010017;71;33395;-72
2022/06/25 21:28:40;;;;;;;64.77;60.47;;;;;;;16.89;100.00;100898.42;2016899;71;33427;-72
2022/06/25 21:34:26;;;;;;;62.83;58.93;;;;;;;16.88;100.00;100905.18;2005524;71;32853;-72
2022/06/25 21:40:15;;;;;;;64.20;60.10;;;;;;;16.75;100.00;100913.40;2000218;71;30901;-75
2022/06/25 21:45:59;;;;;;;66.37;61.97;;;;;;;16.56;100.00;100928.21;2014814;71;32865;-73
2022/06/25 21:51:44;;;;;;;66.10;61.87;;;;;;;16.44;100.00;100928.57;2015105;71;33340;-73
2022/06/25 21:57:29;;;;;;;65.57;61.47;;;;;;;16.43;100.00;100927.73;2007748;71;30867;-74
2022/06/25 22:03:13;;;;;;;64.53;60.03;;;;;;;16.16;100.00;100943.35;1995113;71;32801;-75
2022/06/25 22:08:58;;;;;;;60.83;57.20;;;;;;;16.25;100.00;100941.44;1968718;72;33363;-75
2022/06/25 22:14:43;;;;;;;58.47;54.77;;;;;;;16.01;100.00;100943.73;2009411;71;32797;-73
2022/06/25 22:26:30;;;;;;;58.00;54.53;;;;;;;15.82;100.00;100950.38;1995277;71;32848;-73
2022/06/25 22:32:14;;;;;;;58.67;55.27;;;;;;;15.81;100.00;100947.88;1991616;71;30888;-73
2022/06/25 22:37:58;;;;;;;56.23;53.10;;;;;;;15.77;100.00;100943.50;2007731;71;30946;-74
2022/06/25 22:43:43;;;;;;;55.50;52.20;;;;;;;15.80;100.00;100944.25;2016856;71;32834;-73
2022/06/25 22:49:27;;;;;;;58.90;55.30;;;;;;;15.42;100.00;100949.91;2009365;71;32839;-73
2022/06/25 22:55:12;;;;;;;57.20;54.00;;;;;;;15.46;100.00;100951.77;2004003;70;32890;-73
2022/06/25 23:00:56;;;;;;;55.27;52.20;;;;;;;15.47;100.00;100957.62;2018540;71;32934;-75
2022/06/25 23:06:42;;;;;;;55.50;52.40;;;;;;;15.28;100.00;100961.12;1993893;71;33366;-73
2022/06/25 23:12:26;;;;;;;58.83;55.33;;;;;;;15.17;100.00;100955.52;2000234;71;32922;-73
2022/06/25 23:18:10;;;;;;;57.77;54.47;;;;;;;15.12;100.00;100970.17;2003910;71;32938;-74
2022/06/25 23:23:55;;;;;;;57.53;54.23;;;;;;;15.20;100.00;100961.88;2005883;71;32857;-73
2022/06/25 23:29:39;;;;;;;58.03;54.77;;;;;;;14.89;100.00;100966.48;1995232;71;33450;-74
2022/06/25 23:35:24;;;;;;;62.00;58.40;;;;;;;14.96;100.00;100973.88;2010983;71;32873;-73
2022/06/25 23:41:08;;;;;;;60.83;57.33;;;;;;;14.77;100.00;100978.73;2018785;71;33356;-75
2022/06/25 23:46:53;;;;;;;58.87;55.57;;;;;;;14.79;100.00;100984.30;1995248;71;32754;-73
2022/06/25 23:52:37;;;;;;;60.97;57.27;;;;;;;14.73;100.00;100979.92;2005633;71;32791;-73
2022/06/25 23:58:23;;;;;;;58.73;55.33;;;;;;;14.61;100.00;100992.19;2002413;71;32838;-72
